sensor_id;sensor_type;location;lat;lon;timestamp;pressure;altitude;pressure_sealevel;temperature;humidity
13867;BME280;7003;46.982;15.248;2023-03-01T00:00:05;98062.59;;;0.45;100.00
13867;BME280;7003;46.982;15.248;2023-03-01T00:02:35;98072.28;;;0.45;100.00
13867;BME280;7003;46.982;15.248;2023-03-01T00:05:03;98059.72;;;0.47;100.00
13867;BME280;7003;46.982;15.248;2023-03-01T00:07:30;98061.09;;;0.49;100.00
13867;BME280;7003;46.982;15.248;2023-03-01T00:09:58;98058.63;;;0.59;100.00
13867;BME280;7003;46.982;15.248;2023-03-01T00:12:25;98064.91;;;0.58;100.00
13867;BME280;7003;46.982;15.248;2023-03-01T00:14:56;98061.50;;;0.58;100.00
13867;BME280;7003;46.982;15.248;2023-03-01T00:17:26;98060.38;;;0.54;100.00
13867;BME280;7003;46.982;15.248;2023-03-01T00:19:57;98060.84;;;0.51;100.00
13867;BME280;7003;46.982;15.248;2023-03-01T00:22:27;98061.81;;;0.61;100.00
13867;BME280;7003;46.982;15.248;2023-03-01T00:24:55;98063.53;;;0.56;100.00
13867;BME280;7003;46.982;15.248;2023-03-01T00:27:22;98056.88;;;0.48;100.00
13867;BME280;7003;46.982;15.248;2023-03-01T00:29:52;98065.53;;;0.49;100.00
13867;BME280;7003;46.982;15.248;2023-03-01T00:32:21;98061.66;;;0.51;100.00
13867;BME280;7003;46.982;15.248;2023-03-01T00:34:52;98053.22;;;0.66;100.00
13867;BME280;7003;46.982;15.248;2023-03-01T00:37:24;98049.41;;;0.73;100.00
13867;BME280;7003;46.982;15.248;2023-03-01T00:39:53;98047.03;;;0.72;100.00
13867;BME280;7003;46.982;15.248;2023-03-01T00:42:20;98048.63;;;0.56;100.00
13867;BME280;7003;46.982;15.248;2023-03-01T00:44:50;98048.78;;;0.50;100.00
13867;BME280;7003;46.982;15.248;2023-03-01T00:47:20;98044.28;;;0.45;100.00
13867;BME280;7003;46.982;15.248;2023-03-01T00:49:49;98049.41;;;0.40;100.00
13867;BME280;7003;46.982;15.248;2023-03-01T00:52:21;98045.63;;;0.48;100.00
13867;BME280;7003;46.982;15.248;2023-03-01T00:54:48;98045.31;;;0.44;100.00
13867;BME280;7003;46.982;15.248;2023-03-01T00:57:20;98039.59;;;0.47;100.00
13867;BME280;7003;46.982;15.248;2023-03-01T00:59:50;98036.84;;;0.54;100.00
13867;BME280;7003;46.982;15.248;2023-03-01T01:02:18;98032.53;;;0.48;100.00
13867;BME280;7003;46.982;15.248;2023-03-01T01:04:50;98037.28;;;0.51;100.00
13867;BME280;7003;46.982;15.248;2023-03-01T01:07:39;98026.03;;;0.67;100.00
13867;BME280;7003;46.982;15.248;2023-03-01T01:10:07;98018.88;;;0.62;100.00
13867;BME280;7003;46.982;15.248;2023-03-01T01:12:50;98016.19;;;0.57;100.00
13867;BME280;7003;46.982;15.248;2023-03-01T01:15:25;98014.94;;;0.60;100.00
13867;BME280;7003;46.982;15.248;2023-03-01T01:17:56;98014.38;;;0.58;100.00
13867;BME280;7003;46.982;15.248;2023-03-01T01:20:32;98007.53;;;0.57;100.00
13867;BME280;7003;46.982;15.248;2023-03-01T01:23:10;98006.75;;;0.56;100.00
13867;BME280;7003;46.982;15.248;2023-03-01T01:25:41;98001.22;;;0.53;100.00
13867;BME280;7003;46.982;15.248;2023-03-01T01:28:28;98006.91;;;0.50;100.00
13867;BME280;7003;46.982;15.248;2023-03-01T01:31:14;98006.06;;;0.44;100.00
13867;BME280;7003;46.982;15.248;2023-03-01T01:33:47;98006.06;;;0.44;100.00
13867;BME280;7003;46.982;15.248;2023-03-01T01:36:17;98000.59;;;0.46;100.00
13867;BME280;7003;46.982;15.248;2023-03-01T01:39:01;97999.00;;;0.45;100.00
13867;BME280;7003;46.982;15.248;2023-03-01T01:41:48;97996.84;;;0.42;100.00
13867;BME280;7003;46.982;15.248;2023-03-01T01:44:27;97987.78;;;0.32;100.00
13867;BME280;7003;46.982;15.248;2023-03-01T01:47:13;97994.22;;;0.42;100.00
13867;BME280;7003;46.982;15.248;2023-03-01T01:49:49;97986.38;;;0.42;100.00
13867;BME280;7003;46.982;15.248;2023-03-01T01:52:32;97979.72;;;0.34;100.00
13867;BME280;7003;46.982;15.248;2023-03-01T01:55:25;97984.88;;;0.29;100.00
13867;BME280;7003;46.982;15.248;2023-03-01T01:58:14;97985.91;;;0.28;100.00
13867;BME280;7003;46.982;15.248;2023-03-01T02:01:03;97976.47;;;0.27;100.00
13867;BME280;7003;46.982;15.248;2023-03-01T02:03:32;97978.13;;;0.33;100.00
13867;BME280;7003;46.982;15.248;2023-03-01T02:06:27;97968.22;;;0.35;100.00
13867;BME280;7003;46.982;15.248;2023-03-01T02:08:57;97975.56;;;0.55;100.00
13867;BME280;7003;46.982;15.248;2023-03-01T02:11:31;97969.41;;;0.44;100.00
13867;BME280;7003;46.982;15.248;2023-03-01T02:13:59;97965.94;;;0.38;100.00
13867;BME280;7003;46.982;15.248;2023-03-01T02:16:29;97974.97;;;0.31;100.00
13867;BME280;7003;46.982;15.248;2023-03-01T02:18:58;97971.06;;;0.33;100.00
13867;BME280;7003;46.982;15.248;2023-03-01T02:21:37;97972.88;;;0.33;100.00
13867;BME280;7003;46.982;15.248;2023-03-01T02:24:19;97970.59;;;0.36;100.00
13867;BME280;7003;46.982;15.248;2023-03-01T02:26:56;97973.00;;;0.38;100.00
13867;BME280;7003;46.982;15.248;2023-03-01T02:29:28;97978.75;;;0.40;100.00
13867;BME280;7003;46.982;15.248;2023-03-01T02:32:02;97969.31;;;0.39;100.00
13867;BME280;7003;46.982;15.248;2023-03-01T02:34:32;97960.44;;;0.40;100.00
13867;BME280;7003;46.982;15.248;2023-03-01T02:37:01;97963.16;;;0.45;100.00
13867;BME280;7003;46.982;15.248;2023-03-01T02:39:36;97960.25;;;0.47;100.00
13867;BME280;7003;46.982;15.248;2023-03-01T02:42:12;97961.31;;;0.46;100.00
13867;BME280;7003;46.982;15.248;2023-03-01T02:44:45;97956.09;;;0.46;100.00
13867;BME280;7003;46.982;15.248;2023-03-01T02:47:15;97955.81;;;0.47;100.00
13867;BME280;7003;46.982;15.248;2023-03-01T02:49:42;97957.13;;;0.45;100.00
13867;BME280;7003;46.982;15.248;2023-03-01T02:52:22;97965.75;;;0.45;100.00
13867;BME280;7003;46.982;15.248;2023-03-01T02:54:57;97957.13;;;0.45;100.00
13867;BME280;7003;46.982;15.248;2023-03-01T02:57:33;97957.13;;;0.45;100.00
13867;BME280;7003;46.982;15.248;2023-03-01T03:00:11;97954.56;;;0.50;100.00
13867;BME280;7003;46.982;15.248;2023-03-01T03:02:51;97951.38;;;0.48;100.00
13867;BME280;7003;46.982;15.248;2023-03-01T03:05:21;97953.47;;;0.46;100.00
13867;BME280;7003;46.982;15.248;2023-03-01T03:08:08;97952.00;;;0.55;100.00
13867;BME280;7003;46.982;15.248;2023-03-01T03:10:40;97950.91;;;0.51;100.00
13867;BME280;7003;46.982;15.248;2023-03-01T03:13:11;97952.19;;;0.48;100.00
13867;BME280;7003;46.982;15.248;2023-03-01T03:16:02;97956.00;;;0.41;100.00
13867;BME280;7003;46.982;15.248;2023-03-01T03:18:38;97957.03;;;0.39;100.00
13867;BME280;7003;46.982;15.248;2023-03-01T03:21:07;97956.78;;;0.41;100.00
13867;BME280;7003;46.982;15.248;2023-03-01T03:23:38;97966.47;;;0.41;100.00
13867;BME280;7003;46.982;15.248;2023-03-01T03:26:17;97955.53;;;0.44;100.00
13867;BME280;7003;46.982;15.248;2023-03-01T03:28:59;97959.97;;;0.43;100.00
13867;BME280;7003;46.982;15.248;2023-03-01T03:31:36;97951.56;;;0.41;100.00
13867;BME280;7003;46.982;15.248;2023-03-01T03:34:06;97955.59;;;0.49;100.00
13867;BME280;7003;46.982;15.248;2023-03-01T03:36:40;97960.53;;;0.45;100.00
13867;BME280;7003;46.982;15.248;2023-03-01T03:39:13;97959.16;;;0.43;100.00
13867;BME280;7003;46.982;15.248;2023-03-01T03:42:01;97960.19;;;0.42;100.00
13867;BME280;7003;46.982;15.248;2023-03-01T03:44:38;97956.00;;;0.41;100.00
13867;BME280;7003;46.982;15.248;2023-03-01T03:47:10;97958.84;;;0.39;100.00
13867;BME280;7003;46.982;15.248;2023-03-01T03:49:37;97961.16;;;0.35;100.00
13867;BME280;7003;46.982;15.248;2023-03-01T03:52:19;97961.22;;;0.41;100.00
13867;BME280;7003;46.982;15.248;2023-03-01T03:54:51;97968.28;;;0.40;100.00
13867;BME280;7003;46.982;15.248;2023-03-01T03:57:18;97960.75;;;0.44;100.00
13867;BME280;7003;46.982;15.248;2023-03-01T03:59:49;97958.75;;;0.51;100.00
13867;BME280;7003;46.982;15.248;2023-03-01T04:02:21;97962.03;;;0.41;100.00
13867;BME280;7003;46.982;15.248;2023-03-01T04:04:49;97959.56;;;0.51;100.00
13867;BME280;7003;46.982;15.248;2023-03-01T04:07:19;97957.59;;;0.42;100.00
13867;BME280;7003;46.982;15.248;2023-03-01T04:09:48;97958.38;;;0.42;100.00
13867;BME280;7003;46.982;15.248;2023-03-01T04:12:19;97954.28;;;0.29;100.00
13867;BME280;7003;46.982;15.248;2023-03-01T04:14:48;97957.91;;;0.28;100.00
13867;BME280;7003;46.982;15.248;2023-03-01T04:17:15;97958.56;;;0.19;100.00
13867;BME280;7003;46.982;15.248;2023-03-01T04:19:46;97959.69;;;0.23;100.00
13867;BME280;7003;46.982;15.248;2023-03-01T04:22:14;97955.06;;;0.30;100.00
13867;BME280;7003;46.982;15.248;2023-03-01T04:24:46;97958.72;;;0.29;100.00
13867;BME280;7003;46.982;15.248;2023-03-01T04:27:16;97953.94;;;0.26;100.00
13867;BME280;7003;46.982;15.248;2023-03-01T04:29:43;97960.94;;;0.20;100.00
13867;BME280;7003;46.982;15.248;2023-03-01T04:32:13;97958.72;;;0.29;100.00
13867;BME280;7003;46.982;15.248;2023-03-01T04:34:49;97959.50;;;0.13;100.00
13867;BME280;7003;46.982;15.248;2023-03-01T04:37:17;97961.78;;;0.09;100.00
13867;BME280;7003;46.982;15.248;2023-03-01T04:39:44;97957.59;;;0.08;100.00
13867;BME280;7003;46.982;15.248;2023-03-01T04:42:13;97957.53;;;0.36;100.00
13867;BME280;7003;46.982;15.248;2023-03-01T04:44:40;97958.09;;;0.22;100.00
13867;BME280;7003;46.982;15.248;2023-03-01T04:47:07;97955.88;;;0.14;100.00
13867;BME280;7003;46.982;15.248;2023-03-01T04:49:37;97954.28;;;0.13;100.00
13867;BME280;7003;46.982;15.248;2023-03-01T04:52:06;97946.03;;;0.04;100.00
13867;BME280;7003;46.982;15.248;2023-03-01T04:54:36;97953.16;;;0.09;100.00
13867;BME280;7003;46.982;15.248;2023-03-01T04:57:05;97951.66;;;0.13;100.00
13867;BME280;7003;46.982;15.248;2023-03-01T04:59:36;97941.44;;;0.11;100.00
13867;BME280;7003;46.982;15.248;2023-03-01T05:02:06;97942.44;;;0.10;100.00
13867;BME280;7003;46.982;15.248;2023-03-01T05:04:33;97947.78;;;0.15;100.00
13867;BME280;7003;46.982;15.248;2023-03-01T05:07:02;97949.66;;;0.20;100.00
13867;BME280;7003;46.982;15.248;2023-03-01T05:09:33;97950.94;;;0.17;100.00
13867;BME280;7003;46.982;15.248;2023-03-01T05:12:00;97954.09;;;0.19;100.00
13867;BME280;7003;46.982;15.248;2023-03-01T05:14:28;97950.47;;;0.20;100.00
13867;BME280;7003;46.982;15.248;2023-03-01T05:16:58;97953.66;;;0.22;100.00
13867;BME280;7003;46.982;15.248;2023-03-01T05:19:33;97958.38;;;0.25;100.00
13867;BME280;7003;46.982;15.248;2023-03-01T05:22:01;97956.56;;;0.26;100.00
13867;BME280;7003;46.982;15.248;2023-03-01T05:24:35;97948.72;;;0.26;100.00
13867;BME280;7003;46.982;15.248;2023-03-01T05:27:04;97950.78;;;0.24;100.00
13867;BME280;7003;46.982;15.248;2023-03-01T05:29:32;97949.75;;;0.25;100.00
13867;BME280;7003;46.982;15.248;2023-03-01T05:32:01;97948.47;;;0.27;100.00
13867;BME280;7003;46.982;15.248;2023-03-01T05:34:32;97950.31;;;0.27;100.00
13867;BME280;7003;46.982;15.248;2023-03-01T05:37:10;97951.09;;;0.27;100.00
13867;BME280;7003;46.982;15.248;2023-03-01T05:39:40;97952.69;;;0.28;100.00
13867;BME280;7003;46.982;15.248;2023-03-01T05:42:10;97951.88;;;0.28;100.00
13867;BME280;7003;46.982;15.248;2023-03-01T05:44:38;97958.16;;;0.27;100.00
13867;BME280;7003;46.982;15.248;2023-03-01T05:47:07;97960.53;;;0.28;100.00
13867;BME280;7003;46.982;15.248;2023-03-01T05:49:36;97959.00;;;0.32;100.00
13867;BME280;7003;46.982;15.248;2023-03-01T05:52:04;97956.97;;;0.34;100.00
13867;BME280;7003;46.982;15.248;2023-03-01T05:54:33;97962.25;;;0.39;100.00
13867;BME280;7003;46.982;15.248;2023-03-01T05:57:04;97961.97;;;0.36;100.00
13867;BME280;7003;46.982;15.248;2023-03-01T05:59:32;97963.56;;;0.20;100.00
13867;BME280;7003;46.982;15.248;2023-03-01T06:02:01;97968.47;;;0.00;100.00
13867;BME280;7003;46.982;15.248;2023-03-01T06:04:29;97973.69;;;0.33;100.00
13867;BME280;7003;46.982;15.248;2023-03-01T06:06:58;97968.44;;;0.33;100.00
13867;BME280;7003;46.982;15.248;2023-03-01T06:09:28;97978.34;;;0.31;100.00
13867;BME280;7003;46.982;15.248;2023-03-01T06:11:56;97975.81;;;0.53;100.00
13867;BME280;7003;46.982;15.248;2023-03-01T06:14:26;97981.13;;;0.42;100.00
13867;BME280;7003;46.982;15.248;2023-03-01T06:16:54;97980.22;;;0.31;100.00
13867;BME280;7003;46.982;15.248;2023-03-01T06:19:23;97983.53;;;0.26;100.00
13867;BME280;7003;46.982;15.248;2023-03-01T06:21:51;97976.69;;;0.25;100.00
13867;BME280;7003;46.982;15.248;2023-03-01T06:24:22;97985.00;;;0.39;100.00
13867;BME280;7003;46.982;15.248;2023-03-01T06:26:52;97975.75;;;0.31;100.00
13867;BME280;7003;46.982;15.248;2023-03-01T06:29:21;97979.88;;;0.27;100.00
13867;BME280;7003;46.982;15.248;2023-03-01T06:31:50;97983.28;;;0.28;100.00
13867;BME280;7003;46.982;15.248;2023-03-01T06:34:22;97978.22;;;0.38;100.00
13867;BME280;7003;46.982;15.248;2023-03-01T06:36:53;97989.31;;;0.28;100.00
13867;BME280;7003;46.982;15.248;2023-03-01T06:39:21;97990.34;;;0.27;100.00
13867;BME280;7003;46.982;15.248;2023-03-01T06:41:49;97989.31;;;0.28;100.00
13867;BME280;7003;46.982;15.248;2023-03-01T06:44:22;98000.66;;;0.34;100.00
13867;BME280;7003;46.982;15.248;2023-03-01T06:46:54;97999.63;;;0.35;100.00
13867;BME280;7003;46.982;15.248;2023-03-01T06:49:25;97997.41;;;0.44;100.00
13867;BME280;7003;46.982;15.248;2023-03-01T06:51:53;98005.81;;;0.46;100.00
13867;BME280;7003;46.982;15.248;2023-03-01T06:54:22;98003.66;;;0.43;100.00
13867;BME280;7003;46.982;15.248;2023-03-01T06:56:50;97997.97;;;0.46;100.00
13867;BME280;7003;46.982;15.248;2023-03-01T06:59:19;98000.59;;;0.46;100.00
13867;BME280;7003;46.982;15.248;2023-03-01T07:01:47;98001.34;;;0.63;100.00
13867;BME280;7003;46.982;15.248;2023-03-01T07:04:17;97996.03;;;0.58;100.00
13867;BME280;7003;46.982;15.248;2023-03-01T07:06:46;98002.31;;;0.57;100.00
13867;BME280;7003;46.982;15.248;2023-03-01T07:09:21;98010.38;;;0.72;100.00
13867;BME280;7003;46.982;15.248;2023-03-01T07:11:50;98008.72;;;0.66;100.00
13867;BME280;7003;46.982;15.248;2023-03-01T07:14:19;98004.09;;;0.73;100.00
13867;BME280;7003;46.982;15.248;2023-03-01T07:16:49;98015.28;;;0.85;100.00
13867;BME280;7003;46.982;15.248;2023-03-01T07:19:20;98014.19;;;0.81;100.00
13867;BME280;7003;46.982;15.248;2023-03-01T07:21:49;98007.84;;;0.77;100.00
13867;BME280;7003;46.982;15.248;2023-03-01T07:24:20;98018.97;;;1.06;100.00
13867;BME280;7003;46.982;15.248;2023-03-01T07:26:51;98019.84;;;0.95;100.00
13867;BME280;7003;46.982;15.248;2023-03-01T07:29:20;98023.78;;;0.92;100.00
13867;BME280;7003;46.982;15.248;2023-03-01T07:31:48;98023.50;;;0.94;100.00
13867;BME280;7003;46.982;15.248;2023-03-01T07:34:17;98026.69;;;0.96;100.00
13867;BME280;7003;46.982;15.248;2023-03-01T07:36:48;98026.44;;;0.97;100.00
13867;BME280;7003;46.982;15.248;2023-03-01T07:39:17;98030.66;;;0.98;100.00
13867;BME280;7003;46.982;15.248;2023-03-01T07:41:45;98038.63;;;1.08;100.00
13867;BME280;7003;46.982;15.248;2023-03-01T07:44:18;98029.50;;;1.11;100.00
13867;BME280;7003;46.982;15.248;2023-03-01T07:46:47;98023.63;;;1.21;100.00
13867;BME280;7003;46.982;15.248;2023-03-01T07:49:17;98031.06;;;1.29;100.00
13867;BME280;7003;46.982;15.248;2023-03-01T07:51:48;98028.91;;;1.26;100.00
13867;BME280;7003;46.982;15.248;2023-03-01T07:54:17;98042.63;;;1.33;100.00
13867;BME280;7003;46.982;15.248;2023-03-01T07:56:48;98037.56;;;1.26;100.00
13867;BME280;7003;46.982;15.248;2023-03-01T07:59:16;98046.16;;;1.22;100.00
13867;BME280;7003;46.982;15.248;2023-03-01T08:01:45;98040.56;;;1.35;100.00
13867;BME280;7003;46.982;15.248;2023-03-01T08:04:14;98039.34;;;1.21;100.00
13867;BME280;7003;46.982;15.248;2023-03-01T08:06:43;98034.38;;;1.24;100.00
13867;BME280;7003;46.982;15.248;2023-03-01T08:09:13;98032.50;;;1.20;100.00
13867;BME280;7003;46.982;15.248;2023-03-01T08:11:42;98034.75;;;1.33;100.00
13867;BME280;7003;46.982;15.248;2023-03-01T08:14:11;98036.06;;;1.52;100.00
13867;BME280;7003;46.982;15.248;2023-03-01T08:16:40;98033.59;;;1.67;100.00
13867;BME280;7003;46.982;15.248;2023-03-01T08:19:10;98031.53;;;1.69;100.00
13867;BME280;7003;46.982;15.248;2023-03-01T08:21:41;98033.72;;;1.77;100.00
13867;BME280;7003;46.982;15.248;2023-03-01T08:24:10;98036.00;;;1.69;100.00
13867;BME280;7003;46.982;15.248;2023-03-01T08:26:41;98035.56;;;1.55;100.00
13867;BME280;7003;46.982;15.248;2023-03-01T08:29:12;98042.97;;;1.85;100.00
13867;BME280;7003;46.982;15.248;2023-03-01T08:31:41;98024.31;;;1.81;100.00
13867;BME280;7003;46.982;15.248;2023-03-01T08:34:12;98035.91;;;1.85;100.00
13867;BME280;7003;46.982;15.248;2023-03-01T08:36:42;98028.81;;;1.86;100.00
13867;BME280;7003;46.982;15.248;2023-03-01T08:39:15;98027.38;;;1.73;100.00
13867;BME280;7003;46.982;15.248;2023-03-01T08:41:48;98021.75;;;1.65;100.00
13867;BME280;7003;46.982;15.248;2023-03-01T08:44:16;98023.34;;;1.66;100.00
13867;BME280;7003;46.982;15.248;2023-03-01T08:46:47;98016.25;;;1.61;100.00
13867;BME280;7003;46.982;15.248;2023-03-01T08:49:19;98011.44;;;1.53;100.00
13867;BME280;7003;46.982;15.248;2023-03-01T08:51:49;98007.81;;;1.59;100.00
13867;BME280;7003;46.982;15.248;2023-03-01T08:54:21;98012.31;;;1.64;100.00
13867;BME280;7003;46.982;15.248;2023-03-01T08:56:52;98010.13;;;1.77;100.00
13867;BME280;7003;46.982;15.248;2023-03-01T08:59:25;98013.72;;;1.98;100.00
13867;BME280;7003;46.982;15.248;2023-03-01T09:01:56;98003.31;;;2.08;100.00
13867;BME280;7003;46.982;15.248;2023-03-01T09:04:25;98002.31;;;2.14;100.00
13867;BME280;7003;46.982;15.248;2023-03-01T09:06:54;97993.47;;;2.25;100.00
13867;BME280;7003;46.982;15.248;2023-03-01T09:09:23;97991.72;;;2.31;100.00
13867;BME280;7003;46.982;15.248;2023-03-01T09:11:54;97987.84;;;2.44;100.00
13867;BME280;7003;46.982;15.248;2023-03-01T09:14:23;97987.03;;;2.38;100.00
13867;BME280;7003;46.982;15.248;2023-03-01T09:16:53;97973.44;;;2.46;100.00
13867;BME280;7003;46.982;15.248;2023-03-01T09:19:23;97975.16;;;2.72;100.00
13867;BME280;7003;46.982;15.248;2023-03-01T09:21:52;97973.53;;;2.61;100.00
13867;BME280;7003;46.982;15.248;2023-03-01T09:24:24;97977.38;;;2.49;100.00
13867;BME280;7003;46.982;15.248;2023-03-01T09:26:57;97975.53;;;2.49;100.00
13867;BME280;7003;46.982;15.248;2023-03-01T09:29:26;97968.66;;;2.38;100.00
13867;BME280;7003;46.982;15.248;2023-03-01T09:31:55;97962.97;;;2.56;100.00
13867;BME280;7003;46.982;15.248;2023-03-01T09:34:27;97962.31;;;2.76;100.00
13867;BME280;7003;46.982;15.248;2023-03-01T09:36:58;97958.84;;;2.65;100.00
13867;BME280;7003;46.982;15.248;2023-03-01T09:39:29;97946.81;;;2.80;100.00
13867;BME280;7003;46.982;15.248;2023-03-01T09:42:02;97941.00;;;2.72;100.00
13867;BME280;7003;46.982;15.248;2023-03-01T09:44:38;97948.97;;;2.83;100.00
13867;BME280;7003;46.982;15.248;2023-03-01T09:47:16;97942.19;;;2.92;100.00
13867;BME280;7003;46.982;15.248;2023-03-01T09:49:57;97941.84;;;2.78;100.00
13867;BME280;7003;46.982;15.248;2023-03-01T09:52:38;97946.34;;;2.88;100.00
13867;BME280;7003;46.982;15.248;2023-03-01T09:55:11;97945.31;;;2.89;100.00
13867;BME280;7003;46.982;15.248;2023-03-01T09:57:48;97944.72;;;2.77;100.00
13867;BME280;7003;46.982;15.248;2023-03-01T10:00:30;97940.44;;;2.65;100.00
13867;BME280;7003;46.982;15.248;2023-03-01T10:03:08;97941.13;;;2.93;100.00
13867;BME280;7003;46.982;15.248;2023-03-01T10:05:49;97926.66;;;2.90;100.00
13867;BME280;7003;46.982;15.248;2023-03-01T10:08:30;97923.78;;;2.97;100.00
13867;BME280;7003;46.982;15.248;2023-03-01T10:11:03;97929.34;;;3.05;100.00
13867;BME280;7003;46.982;15.248;2023-03-01T10:13:45;97926.38;;;2.87;100.00
13867;BME280;7003;46.982;15.248;2023-03-01T10:16:25;97926.84;;;2.74;100.00
13867;BME280;7003;46.982;15.248;2023-03-01T10:19:00;97929.34;;;3.00;100.00
13867;BME280;7003;46.982;15.248;2023-03-01T10:21:32;97938.56;;;3.08;100.00
13867;BME280;7003;46.982;15.248;2023-03-01T10:24:14;97943.28;;;3.01;100.00
13867;BME280;7003;46.982;15.248;2023-03-01T10:26:50;97936.97;;;3.02;100.00
13867;BME280;7003;46.982;15.248;2023-03-01T10:29:27;97940.66;;;3.01;100.00
13867;BME280;7003;46.982;15.248;2023-03-01T10:32:00;97941.44;;;3.06;100.00
13867;BME280;7003;46.982;15.248;2023-03-01T10:34:31;97956.41;;;3.01;100.00
13867;BME280;7003;46.982;15.248;2023-03-01T10:37:09;97974.34;;;3.14;100.00
13867;BME280;7003;46.982;15.248;2023-03-01T10:39:58;97981.97;;;3.21;100.00
13867;BME280;7003;46.982;15.248;2023-03-01T10:42:37;97977.16;;;3.02;100.00
13867;BME280;7003;46.982;15.248;2023-03-01T10:45:30;97977.50;;;3.16;100.00
13867;BME280;7003;46.982;15.248;2023-03-01T10:48:11;97984.25;;;2.97;100.00
13867;BME280;7003;46.982;15.248;2023-03-01T10:50:42;97984.63;;;2.74;100.00
13867;BME280;7003;46.982;15.248;2023-03-01T10:53:25;97987.81;;;2.76;100.00
13867;BME280;7003;46.982;15.248;2023-03-01T10:56:03;97983.59;;;2.80;100.00
13867;BME280;7003;46.982;15.248;2023-03-01T10:58:34;97981.13;;;3.00;100.00
13867;BME280;7003;46.982;15.248;2023-03-01T11:01:23;97977.94;;;3.03;100.00
13867;BME280;7003;46.982;15.248;2023-03-01T11:04:10;97973.16;;;2.90;100.00
13867;BME280;7003;46.982;15.248;2023-03-01T11:06:43;97967.13;;;2.89;100.00
13867;BME280;7003;46.982;15.248;2023-03-01T11:09:32;97956.13;;;3.02;100.00
13867;BME280;7003;46.982;15.248;2023-03-01T11:12:14;97960.03;;;2.90;100.00
13867;BME280;7003;46.982;15.248;2023-03-01T11:14:48;97960.88;;;3.05;100.00
13867;BME280;7003;46.982;15.248;2023-03-01T11:17:23;97953.00;;;3.05;100.00
13867;BME280;7003;46.982;15.248;2023-03-01T11:20:02;97954.34;;;3.08;100.00
13867;BME280;7003;46.982;15.248;2023-03-01T11:22:35;97940.09;;;2.99;100.00
13867;BME280;7003;46.982;15.248;2023-03-01T11:25:07;97918.53;;;2.97;100.00
13867;BME280;7003;46.982;15.248;2023-03-01T11:27:48;97909.16;;;3.16;100.00
13867;BME280;7003;46.982;15.248;2023-03-01T11:30:22;97911.00;;;3.21;100.00
13867;BME280;7003;46.982;15.248;2023-03-01T11:33:13;97922.56;;;3.20;100.00
13867;BME280;7003;46.982;15.248;2023-03-01T11:35:50;97910.22;;;3.20;100.00
13867;BME280;7003;46.982;15.248;2023-03-01T11:38:28;97912.34;;;3.28;100.00
13867;BME280;7003;46.982;15.248;2023-03-01T11:41:01;97913.41;;;3.42;100.00
13867;BME280;7003;46.982;15.248;2023-03-01T11:43:51;97916.84;;;3.38;100.00
13867;BME280;7003;46.982;15.248;2023-03-01T11:46:45;97915.22;;;3.27;100.00
13867;BME280;7003;46.982;15.248;2023-03-01T11:52:28;97908.13;;;3.22;100.00
13867;BME280;7003;46.982;15.248;2023-03-01T11:55:15;97904.75;;;3.42;100.00
13867;BME280;7003;46.982;15.248;2023-03-01T11:58:05;97903.94;;;3.31;100.00
13867;BME280;7003;46.982;15.248;2023-03-01T12:00:53;97901.88;;;3.54;100.00
13867;BME280;7003;46.982;15.248;2023-03-01T12:03:59;97896.63;;;3.54;100.00
13867;BME280;7003;46.982;15.248;2023-03-01T12:06:42;97883.72;;;3.72;100.00
13867;BME280;7003;46.982;15.248;2023-03-01T12:09:38;97882.19;;;3.71;100.00
13867;BME280;7003;46.982;15.248;2023-03-01T12:12:28;97869.81;;;3.82;100.00
13867;BME280;7003;46.982;15.248;2023-03-01T12:15:24;97863.75;;;3.81;100.00
13867;BME280;7003;46.982;15.248;2023-03-01T12:18:10;97858.50;;;3.71;100.00
13867;BME280;7003;46.982;15.248;2023-03-01T12:20:51;97839.81;;;3.63;100.00
13867;BME280;7003;46.982;15.248;2023-03-01T12:23:48;97848.50;;;3.63;100.00
13867;BME280;7003;46.982;15.248;2023-03-01T12:26:28;97850.59;;;3.51;100.00
13867;BME280;7003;46.982;15.248;2023-03-01T12:29:25;97846.91;;;3.87;100.00
13867;BME280;7003;46.982;15.248;2023-03-01T12:32:20;97832.19;;;3.76;100.00
13867;BME280;7003;46.982;15.248;2023-03-01T12:35:22;97831.91;;;3.78;100.00
13867;BME280;7003;46.982;15.248;2023-03-01T12:38:07;97825.59;;;3.74;100.00
13867;BME280;7003;46.982;15.248;2023-03-01T12:40:49;97821.41;;;3.78;100.00
13867;BME280;7003;46.982;15.248;2023-03-01T12:43:38;97822.44;;;3.82;100.00
13867;BME280;7003;46.982;15.248;2023-03-01T12:46:20;97816.38;;;3.76;100.00
13867;BME280;7003;46.982;15.248;2023-03-01T12:49:02;97806.66;;;3.87;100.00
13867;BME280;7003;46.982;15.248;2023-03-01T12:51:39;97801.66;;;3.75;100.00
13867;BME280;7003;46.982;15.248;2023-03-01T12:54:16;97791.13;;;3.85;100.00
13867;BME280;7003;46.982;15.248;2023-03-01T12:56:50;97792.13;;;4.05;100.00
13867;BME280;7003;46.982;15.248;2023-03-01T12:59:31;97797.13;;;4.16;100.00
13867;BME280;7003;46.982;15.248;2023-03-01T13:02:13;97785.78;;;4.11;100.00
13867;BME280;7003;46.982;15.248;2023-03-01T13:05:00;97782.91;;;4.17;100.00
13867;BME280;7003;46.982;15.248;2023-03-01T13:07:40;97775.97;;;4.37;100.00
13867;BME280;7003;46.982;15.248;2023-03-01T13:10:21;97766.56;;;4.20;100.00
13867;BME280;7003;46.982;15.248;2023-03-01T13:13:08;97760.19;;;4.26;100.00
13867;BME280;7003;46.982;15.248;2023-03-01T13:15:43;97751.75;;;4.35;100.00
13867;BME280;7003;46.982;15.248;2023-03-01T13:18:33;97747.53;;;4.39;100.00
13867;BME280;7003;46.982;15.248;2023-03-01T13:21:04;97748.34;;;4.29;100.00
13867;BME280;7003;46.982;15.248;2023-03-01T13:23:39;97750.66;;;4.46;100.00
13867;BME280;7003;46.982;15.248;2023-03-01T13:26:14;97744.38;;;4.37;100.00
13867;BME280;7003;46.982;15.248;2023-03-01T13:28:52;97749.59;;;4.47;100.00
13867;BME280;7003;46.982;15.248;2023-03-01T13:34:44;97742.84;;;4.80;100.00
13867;BME280;7003;46.982;15.248;2023-03-01T13:37:35;97745.63;;;4.54;100.00
13867;BME280;7003;46.982;15.248;2023-03-01T13:43:30;97743.59;;;4.41;100.00
13867;BME280;7003;46.982;15.248;2023-03-01T13:46:08;97743.47;;;4.61;100.00